»·PEaware :: UAL561 KDEN-KJAC

UAL561 :: KDEN-KJAC

FLIGHT INFORMATION

Flight Status: Arrived
Operator:
United Airlines
More flights by this operator :: More flights under this callsign
Pilot: Oshane D. (17945)
Aircraft: BOEING 737-800
(B738)
More flights by this aircraft type
Origin: KDEN Denver Intl
United States
Destination: KJAC Jackson Hole
United States
More flights between these airports :: More routes between these airports
Route: +YAMMI3 LAR OCS BPI JAC
File this flight plan on PilotEdge
Remarks: PBN / A1B1C1D1S1S2 NAV / RNVD1E2A1 DOF / 180125 REG / N807NN EET / KZLC0039 CODE / HVWXER OPR / UAL PER / D RMK / TCAS SIMBRIEF
Altitude:
(Current/Filed)
36,000ft
Speed:
(Current/Filed)
449kts
Departed: 24-Jan-18 04:56 PM
Arrived: 24-Jan-18 06:20 PM
Distance/Time
Traveled:
352nm/1:24
Distance/Time
To Go:
Arrived

Flight Plot

Page will automatically refresh every two minutes.

Flight plan parsing failed; only flown route is shown


Map Options




Map Legend


Flown Route
Filed Route
Departure Airport
Arrival Airport
Navaid (VOR, NDB)
Fix

Horizontal Profiles

Position Reports

Time Latitude Longitude Heading Altitude Ground
Speed
24-Jan-18 16:16 39.865641 -104.672352 0 5438ft 0kts
24-Jan-18 16:17 39.865641 -104.672352 0 5438ft 0kts
24-Jan-18 16:18 39.865641 -104.672352 0 5439ft 0kts
24-Jan-18 16:19 39.865641 -104.672352 0 5439ft 0kts
24-Jan-18 16:20 39.865641 -104.672352 0 5439ft 0kts
24-Jan-18 16:21 39.865641 -104.672352 0 5439ft 0kts
24-Jan-18 16:22 39.865641 -104.672352 0 5439ft 0kts
24-Jan-18 16:23 39.865641 -104.672352 0 5439ft 0kts
24-Jan-18 16:24 39.865641 -104.672352 0 5439ft 0kts
24-Jan-18 16:25 39.865641 -104.672352 0 5439ft 0kts
24-Jan-18 16:26 39.865641 -104.672352 0 5439ft 0kts
24-Jan-18 16:27 39.865641 -104.672352 0 5439ft 0kts
24-Jan-18 16:28 39.865641 -104.672352 0 5439ft 0kts
24-Jan-18 16:29 39.865641 -104.672352 0 5439ft 0kts
24-Jan-18 16:30 39.865641 -104.672352 0 5439ft 0kts
24-Jan-18 16:31 39.865641 -104.672352 0 5439ft 0kts
24-Jan-18 16:32 39.865641 -104.672352 0 5439ft 0kts
24-Jan-18 16:33 39.865641 -104.672352 0 5439ft 0kts
24-Jan-18 16:34 39.865641 -104.672352 0 5439ft 0kts
24-Jan-18 16:35 39.865641 -104.672352 0 5439ft 0kts
24-Jan-18 16:36 39.865641 -104.672352 0 5439ft 0kts
24-Jan-18 16:37 39.865641 -104.672352 0 5439ft 0kts
24-Jan-18 16:38 39.865641 -104.672352 0 5439ft 0kts
24-Jan-18 16:39 39.865641 -104.672352 0 5439ft 0kts
24-Jan-18 16:40 39.865641 -104.672352 0 5439ft 0kts
24-Jan-18 16:41 39.865641 -104.672352 0 5439ft 0kts
24-Jan-18 16:42 39.865641 -104.672352 0 5439ft 0kts
24-Jan-18 16:43 39.865641 -104.672352 0 5439ft 0kts
24-Jan-18 16:44 39.865641 -104.672352 0 5439ft 0kts
24-Jan-18 16:45 39.865641 -104.672352 0 5439ft 0kts
24-Jan-18 16:46 39.865429 -104.672349 356 5439ft 2kts
24-Jan-18 16:47 39.864837 -104.672135 302 5439ft 2kts
24-Jan-18 16:48 39.864794 -104.671826 270 5439ft 0kts
24-Jan-18 16:49 39.864794 -104.671826 270 5439ft 0kts
24-Jan-18 16:50 39.864802 -104.673222 270 5439ft 4kts
24-Jan-18 16:51 39.864815 -104.675193 270 5439ft 10kts
24-Jan-18 16:52 39.864834 -104.678193 270 5439ft 10kts
24-Jan-18 16:53 39.864647 -104.681667 228 5439ft 7kts
24-Jan-18 16:54 39.864321 -104.682919 270 5439ft 0kts
24-Jan-18 16:55 39.862951 -104.683912 182 5439ft 12kts
24-Jan-18 16:56 39.858796 -104.683955 180 5439ft 15kts
24-Jan-18 16:57 39.854123 -104.684004 180 5439ft 16kts
24-Jan-18 16:58 39.849202 -104.684069 181 5439ft 16kts
24-Jan-18 16:59 39.844338 -104.684126 180 5439ft 18kts
24-Jan-18 17:00 39.841843 -104.684166 180 5439ft 0kts
24-Jan-18 17:01 39.840732 -104.684611 250 5439ft 8kts
24-Jan-18 17:02 39.841269 -104.717131 271 6065ft 161kts
24-Jan-18 17:03 39.857523 -104.792820 296 7450ft 275kts
24-Jan-18 17:04 39.898838 -104.878544 301 9993ft 282kts
24-Jan-18 17:05 39.964290 -104.942993 340 11646ft 327kts
24-Jan-18 17:06 40.057983 -104.944367 2 15149ft 346kts
24-Jan-18 17:07 40.144968 -104.881527 31 18263ft 373kts
24-Jan-18 17:08 40.235500 -104.820004 8 21039ft 366kts
24-Jan-18 17:09 40.336236 -104.808408 350 23507ft 365kts
24-Jan-18 17:10 40.436977 -104.829389 347 25770ft 369kts
24-Jan-18 17:11 40.538076 -104.857188 337 27761ft 372kts
24-Jan-18 17:12 40.627277 -104.927923 326 29433ft 378kts
24-Jan-18 17:13 40.712671 -105.010111 323 31004ft 382kts
24-Jan-18 17:14 40.794224 -105.100947 322 32420ft 385kts
24-Jan-18 17:15 40.875230 -105.192604 321 33902ft 383kts
24-Jan-18 17:16 40.956519 -105.284942 320 35159ft 385kts
24-Jan-18 17:17 41.037939 -105.377562 320 36254ft 389kts
24-Jan-18 17:18 41.120362 -105.471032 319 36261ft 387kts
24-Jan-18 17:19 41.201926 -105.564294 319 36247ft 386kts
24-Jan-18 17:20 41.282954 -105.657600 319 36240ft 386kts
24-Jan-18 17:21 41.337353 -105.777280 284 36239ft 402kts
24-Jan-18 17:22 41.351475 -105.900047 283 36243ft 402kts
24-Jan-18 17:23 41.368082 -106.072379 282 36248ft 402kts
24-Jan-18 17:24 41.381439 -106.220441 282 36250ft 402kts
24-Jan-18 17:25 41.392509 -106.343634 282 36252ft 402kts
24-Jan-18 17:26 41.407401 -106.516272 281 36273ft 403kts
24-Jan-18 17:27 41.417819 -106.640198 281 36300ft 402kts
24-Jan-18 17:28 41.430053 -106.788358 281 36318ft 402kts
24-Jan-18 17:29 41.442061 -106.936331 281 36320ft 402kts
24-Jan-18 17:30 41.453926 -107.085066 281 36314ft 402kts
24-Jan-18 17:31 41.465542 -107.233123 281 36318ft 402kts
24-Jan-18 17:32 41.476994 -107.381575 280 36328ft 401kts
24-Jan-18 17:33 41.488210 -107.529501 280 36331ft 401kts
24-Jan-18 17:34 41.499233 -107.677394 280 36329ft 401kts
24-Jan-18 17:35 41.510071 -107.825444 280 36332ft 400kts
24-Jan-18 17:36 41.520704 -107.973308 280 36349ft 400kts
24-Jan-18 17:37 41.531130 -108.120958 280 36364ft 399kts
24-Jan-18 17:38 41.541390 -108.268984 280 36365ft 400kts
24-Jan-18 17:39 41.551429 -108.416586 280 36364ft 400kts
24-Jan-18 17:40 41.561307 -108.564629 280 36361ft 399kts
24-Jan-18 17:41 41.571258 -108.711926 279 36356ft 398kts
24-Jan-18 17:42 41.580561 -108.859191 279 36351ft 398kts
24-Jan-18 17:43 41.598745 -109.002916 304 36352ft 386kts
24-Jan-18 17:44 41.675352 -109.102165 318 36250ft 380kts
24-Jan-18 17:45 41.754886 -109.192641 319 33733ft 379kts
24-Jan-18 17:46 41.836060 -109.282856 319 32543ft 384kts
24-Jan-18 17:47 41.919637 -109.374561 319 32343ft 390kts
24-Jan-18 17:48 42.003758 -109.467022 319 32334ft 390kts
24-Jan-18 17:49 42.087026 -109.558917 319 32332ft 385kts
24-Jan-18 17:50 42.168974 -109.649684 319 30841ft 377kts
24-Jan-18 17:51 42.249084 -109.738725 318 28618ft 367kts
24-Jan-18 17:52 42.326995 -109.825609 318 26448ft 359kts
24-Jan-18 17:53 42.403446 -109.910802 317 24342ft 351kts
24-Jan-18 17:54 42.477273 -109.993827 317 22837ft 339kts
24-Jan-18 17:55 42.550583 -110.076561 317 21837ft 343kts
24-Jan-18 17:56 42.633736 -110.141053 331 21468ft 347kts
24-Jan-18 17:57 42.722357 -110.193358 331 21468ft 348kts
24-Jan-18 17:58 42.811352 -110.246018 331 21467ft 348kts
24-Jan-18 17:59 42.900208 -110.298738 331 21468ft 349kts
24-Jan-18 18:00 42.989192 -110.351381 331 21468ft 349kts
24-Jan-18 18:01 43.078499 -110.404539 331 21468ft 349kts
24-Jan-18 18:02 43.167276 -110.457607 331 21467ft 348kts
24-Jan-18 18:03 43.256030 -110.510849 331 21222ft 346kts
24-Jan-18 18:04 43.343729 -110.563533 331 19291ft 340kts
24-Jan-18 18:05 43.428774 -110.614790 330 18545ft 333kts
24-Jan-18 18:06 43.514921 -110.667066 330 18322ft 339kts
24-Jan-18 18:07 43.600716 -110.719133 332 16603ft 332kts
24-Jan-18 18:08 43.691668 -110.698882 14 16000ft 344kts
24-Jan-18 18:09 43.778105 -110.654719 12 15987ft 305kts
24-Jan-18 18:10 43.852386 -110.617842 11 15966ft 268kts
24-Jan-18 18:11 43.919946 -110.586263 355 15514ft 230kts
24-Jan-18 18:12 43.973116 -110.613527 324 14719ft 200kts
24-Jan-18 18:13 44.016846 -110.596337 66 13860ft 252kts
24-Jan-18 18:14 43.984213 -110.543795 218 12942ft 191kts
24-Jan-18 18:15 44.001664 -110.587254 0 12395ft 195kts
24-Jan-18 18:16 44.002941 -110.524291 171 12379ft 199kts
24-Jan-18 18:17 43.958504 -110.550328 228 12322ft 173kts
24-Jan-18 18:18 43.915170 -110.581599 208 11621ft 178kts
24-Jan-18 18:19 43.870243 -110.609756 212 10974ft 175kts
24-Jan-18 18:20 43.823958 -110.632628 204 10399ft 176kts
24-Jan-18 18:21 43.777403 -110.655267 203 9799ft 176kts
24-Jan-18 18:22 43.732115 -110.678018 199 8945ft 166kts
24-Jan-18 18:23 43.690387 -110.697279 199 8086ft 156kts
24-Jan-18 18:24 43.648483 -110.716386 202 7205ft 160kts
24-Jan-18 18:25 43.606985 -110.738021 198 6480ft 143kts
24-Jan-18 18:26 43.597443 -110.742561 203 6459ft 14kts

Navigation Log

Ident Type
Flight plan parsing failed, navigation log unavailable